sensor_id;sensor_type;location;lat;lon;timestamp;temperature;humidity
20862;DHT22;10591;52.532;13.348;2023-03-14T00:02:02;11.56;79.35
20862;DHT22;10591;52.532;13.348;2023-03-14T00:04:33;11.74;78.91
20862;DHT22;10591;52.532;13.348;2023-03-14T00:07:05;11.50;79.28
20862;DHT22;10591;52.532;13.348;2023-03-14T00:09:35;11.70;78.78
20862;DHT22;10591;52.532;13.348;2023-03-14T00:12:06;11.56;79.07
20862;DHT22;10591;52.532;13.348;2023-03-14T00:14:37;11.50;79.13
20862;DHT22;10591;52.532;13.348;2023-03-14T00:17:07;11.43;79.34
20862;DHT22;10591;52.532;13.348;2023-03-14T00:19:38;11.57;78.98
20862;DHT22;10591;52.532;13.348;2023-03-14T00:22:08;11.48;79.13
20862;DHT22;10591;52.532;13.348;2023-03-14T00:24:41;11.44;79.33
20862;DHT22;10591;52.532;13.348;2023-03-14T00:27:12;11.32;79.62
20862;DHT22;10591;52.532;13.348;2023-03-14T00:29:43;11.40;79.39
20862;DHT22;10591;52.532;13.348;2023-03-14T00:32:14;11.41;79.39
20862;DHT22;10591;52.532;13.348;2023-03-14T00:34:44;11.32;79.57
20862;DHT22;10591;52.532;13.348;2023-03-14T00:37:16;11.41;79.52
20862;DHT22;10591;52.532;13.348;2023-03-14T00:39:46;11.31;79.76
20862;DHT22;10591;52.532;13.348;2023-03-14T00:42:17;11.36;79.78
20862;DHT22;10591;52.532;13.348;2023-03-14T00:44:47;11.35;79.55
20862;DHT22;10591;52.532;13.348;2023-03-14T00:47:18;11.30;79.98
20862;DHT22;10591;52.532;13.348;2023-03-14T00:49:48;11.43;79.69
20862;DHT22;10591;52.532;13.348;2023-03-14T00:52:19;11.30;80.04
20862;DHT22;10591;52.532;13.348;2023-03-14T00:54:50;11.25;80.19
20862;DHT22;10591;52.532;13.348;2023-03-14T00:57:21;11.22;80.29
20862;DHT22;10591;52.532;13.348;2023-03-14T00:59:52;11.24;80.14
20862;DHT22;10591;52.532;13.348;2023-03-14T01:02:23;11.28;80.45
20862;DHT22;10591;52.532;13.348;2023-03-14T01:04:54;11.24;80.69
20862;DHT22;10591;52.532;13.348;2023-03-14T01:07:25;11.23;80.51
20862;DHT22;10591;52.532;13.348;2023-03-14T01:09:55;11.08;81.11
20862;DHT22;10591;52.532;13.348;2023-03-14T01:12:27;11.07;81.11
20862;DHT22;10591;52.532;13.348;2023-03-14T01:15:02;11.04;81.35
20862;DHT22;10591;52.532;13.348;2023-03-14T01:17:32;11.10;81.29
20862;DHT22;10591;52.532;13.348;2023-03-14T01:20:03;11.09;81.09
20862;DHT22;10591;52.532;13.348;2023-03-14T01:22:40;11.03;81.30
20862;DHT22;10591;52.532;13.348;2023-03-14T01:25:14;11.11;81.44
20862;DHT22;10591;52.532;13.348;2023-03-14T01:27:45;11.14;80.83
20862;DHT22;10591;52.532;13.348;2023-03-14T01:30:15;11.08;80.99
20862;DHT22;10591;52.532;13.348;2023-03-14T01:32:46;11.26;80.35
20862;DHT22;10591;52.532;13.348;2023-03-14T01:35:17;11.30;80.33
20862;DHT22;10591;52.532;13.348;2023-03-14T01:37:47;11.15;80.57
20862;DHT22;10591;52.532;13.348;2023-03-14T01:40:18;11.34;80.26
20862;DHT22;10591;52.532;13.348;2023-03-14T01:42:56;11.14;80.81
20862;DHT22;10591;52.532;13.348;2023-03-14T01:48:42;11.25;80.44
20862;DHT22;10591;52.532;13.348;2023-03-14T01:51:11;11.14;80.79
20862;DHT22;10591;52.532;13.348;2023-03-14T01:53:42;11.11;81.00
20862;DHT22;10591;52.532;13.348;2023-03-14T01:56:14;11.05;81.13
20862;DHT22;10591;52.532;13.348;2023-03-14T01:58:48;11.29;80.87
20862;DHT22;10591;52.532;13.348;2023-03-14T02:01:21;11.09;81.14
20862;DHT22;10591;52.532;13.348;2023-03-14T02:03:55;11.08;81.14
20862;DHT22;10591;52.532;13.348;2023-03-14T02:06:30;11.04;81.47
20862;DHT22;10591;52.532;13.348;2023-03-14T02:09:01;11.04;81.20
20862;DHT22;10591;52.532;13.348;2023-03-14T02:11:33;10.98;81.36
20862;DHT22;10591;52.532;13.348;2023-03-14T02:14:04;10.90;81.66
20862;DHT22;10591;52.532;13.348;2023-03-14T02:16:36;10.96;81.60
20862;DHT22;10591;52.532;13.348;2023-03-14T02:19:07;11.02;81.27
20862;DHT22;10591;52.532;13.348;2023-03-14T02:24:27;11.12;81.35
20862;DHT22;10591;52.532;13.348;2023-03-14T02:29:49;11.14;80.71
20862;DHT22;10591;52.532;13.348;2023-03-14T02:32:21;11.10;80.95
20862;DHT22;10591;52.532;13.348;2023-03-14T02:34:57;11.15;80.71
20862;DHT22;10591;52.532;13.348;2023-03-14T02:37:33;11.17;80.79
20862;DHT22;10591;52.532;13.348;2023-03-14T02:40:02;11.32;80.26
20862;DHT22;10591;52.532;13.348;2023-03-14T02:42:34;11.29;80.35
20862;DHT22;10591;52.532;13.348;2023-03-14T02:47:50;11.49;79.73
20862;DHT22;10591;52.532;13.348;2023-03-14T02:50:20;11.20;80.33
20862;DHT22;10591;52.532;13.348;2023-03-14T02:52:51;11.05;80.76
20862;DHT22;10591;52.532;13.348;2023-03-14T02:55:22;11.05;80.94
20862;DHT22;10591;52.532;13.348;2023-03-14T02:57:54;11.06;80.65
20862;DHT22;10591;52.532;13.348;2023-03-14T03:00:25;10.91;81.10
20862;DHT22;10591;52.532;13.348;2023-03-14T03:02:56;10.89;81.12
20862;DHT22;10591;52.532;13.348;2023-03-14T03:05:29;10.88;81.29
20862;DHT22;10591;52.532;13.348;2023-03-14T03:08:01;10.71;81.64
20862;DHT22;10591;52.532;13.348;2023-03-14T03:10:32;10.58;82.00
20862;DHT22;10591;52.532;13.348;2023-03-14T03:13:02;10.65;81.77
20862;DHT22;10591;52.532;13.348;2023-03-14T03:15:33;10.64;81.79
20862;DHT22;10591;52.532;13.348;2023-03-14T03:18:05;10.80;81.27
20862;DHT22;10591;52.532;13.348;2023-03-14T03:20:36;10.79;81.05
20862;DHT22;10591;52.532;13.348;2023-03-14T03:23:07;10.62;81.47
20862;DHT22;10591;52.532;13.348;2023-03-14T03:25:37;10.86;80.87
20862;DHT22;10591;52.532;13.348;2023-03-14T03:28:08;10.89;80.81
20862;DHT22;10591;52.532;13.348;2023-03-14T03:30:40;10.74;81.19
20862;DHT22;10591;52.532;13.348;2023-03-14T03:33:12;10.95;80.40
20862;DHT22;10591;52.532;13.348;2023-03-14T03:35:48;10.91;80.66
20862;DHT22;10591;52.532;13.348;2023-03-14T03:38:18;10.80;80.63
20862;DHT22;10591;52.532;13.348;2023-03-14T03:40:49;10.80;80.58
20862;DHT22;10591;52.532;13.348;2023-03-14T03:43:20;10.66;80.85
20862;DHT22;10591;52.532;13.348;2023-03-14T03:45:50;10.74;80.77
20862;DHT22;10591;52.532;13.348;2023-03-14T03:48:21;10.62;81.18
20862;DHT22;10591;52.532;13.348;2023-03-14T03:50:51;10.67;80.63
20862;DHT22;10591;52.532;13.348;2023-03-14T03:53:21;10.88;80.11
20862;DHT22;10591;52.532;13.348;2023-03-14T03:55:55;10.86;80.16
20862;DHT22;10591;52.532;13.348;2023-03-14T03:58:26;10.60;80.79
20862;DHT22;10591;52.532;13.348;2023-03-14T04:00:56;10.72;80.67
20862;DHT22;10591;52.532;13.348;2023-03-14T04:03:27;10.72;80.55
20862;DHT22;10591;52.532;13.348;2023-03-14T04:06:03;10.65;80.78
20862;DHT22;10591;52.532;13.348;2023-03-14T04:08:34;10.69;80.49
20862;DHT22;10591;52.532;13.348;2023-03-14T04:11:05;10.75;79.94
20862;DHT22;10591;52.532;13.348;2023-03-14T04:13:38;10.73;80.08
20862;DHT22;10591;52.532;13.348;2023-03-14T04:16:15;10.86;79.59
20862;DHT22;10591;52.532;13.348;2023-03-14T04:18:46;10.80;79.65
20862;DHT22;10591;52.532;13.348;2023-03-14T04:21:18;10.74;79.79
20862;DHT22;10591;52.532;13.348;2023-03-14T04:23:49;10.75;79.69
20862;DHT22;10591;52.532;13.348;2023-03-14T04:26:21;10.76;79.37
20862;DHT22;10591;52.532;13.348;2023-03-14T04:28:52;10.80;79.26
20862;DHT22;10591;52.532;13.348;2023-03-14T04:31:23;10.90;78.98
20862;DHT22;10591;52.532;13.348;2023-03-14T04:33:55;10.83;78.84
20862;DHT22;10591;52.532;13.348;2023-03-14T04:36:27;10.96;78.69
20862;DHT22;10591;52.532;13.348;2023-03-14T04:38:58;10.83;78.52
20862;DHT22;10591;52.532;13.348;2023-03-14T04:41:29;10.84;78.87
20862;DHT22;10591;52.532;13.348;2023-03-14T04:44:00;10.89;78.60
20862;DHT22;10591;52.532;13.348;2023-03-14T04:46:30;10.83;78.49
20862;DHT22;10591;52.532;13.348;2023-03-14T04:49:02;10.93;78.04
20862;DHT22;10591;52.532;13.348;2023-03-14T04:51:32;10.89;78.51
20862;DHT22;10591;52.532;13.348;2023-03-14T04:54:05;10.75;78.85
20862;DHT22;10591;52.532;13.348;2023-03-14T04:56:35;10.78;78.71
20862;DHT22;10591;52.532;13.348;2023-03-14T04:59:13;10.70;78.84
20862;DHT22;10591;52.532;13.348;2023-03-14T05:01:45;10.80;78.06
20862;DHT22;10591;52.532;13.348;2023-03-14T05:04:18;11.04;77.78
20862;DHT22;10591;52.532;13.348;2023-03-14T05:06:48;10.86;77.74
20862;DHT22;10591;52.532;13.348;2023-03-14T05:09:19;10.98;77.62
20862;DHT22;10591;52.532;13.348;2023-03-14T05:11:50;10.86;78.12
20862;DHT22;10591;52.532;13.348;2023-03-14T05:14:23;10.65;78.58
20862;DHT22;10591;52.532;13.348;2023-03-14T05:16:54;10.65;78.43
20862;DHT22;10591;52.532;13.348;2023-03-14T05:19:25;10.77;78.18
20862;DHT22;10591;52.532;13.348;2023-03-14T05:21:55;10.72;77.97
20862;DHT22;10591;52.532;13.348;2023-03-14T05:24:26;10.68;78.26
20862;DHT22;10591;52.532;13.348;2023-03-14T05:26:56;10.82;77.73
20862;DHT22;10591;52.532;13.348;2023-03-14T05:29:31;10.93;76.97
20862;DHT22;10591;52.532;13.348;2023-03-14T05:32:03;10.82;77.41
20862;DHT22;10591;52.532;13.348;2023-03-14T05:34:34;10.96;76.88
20862;DHT22;10591;52.532;13.348;2023-03-14T05:37:05;10.85;77.24
20862;DHT22;10591;52.532;13.348;2023-03-14T05:39:36;10.83;77.00
20862;DHT22;10591;52.532;13.348;2023-03-14T05:42:07;10.80;77.30
20862;DHT22;10591;52.532;13.348;2023-03-14T05:44:38;11.07;76.17
20862;DHT22;10591;52.532;13.348;2023-03-14T05:47:08;10.96;76.22
20862;DHT22;10591;52.532;13.348;2023-03-14T05:49:39;10.83;76.48
20862;DHT22;10591;52.532;13.348;2023-03-14T05:52:10;10.90;76.46
20862;DHT22;10591;52.532;13.348;2023-03-14T05:54:41;10.96;76.22
20862;DHT22;10591;52.532;13.348;2023-03-14T05:57:18;10.98;76.07
20862;DHT22;10591;52.532;13.348;2023-03-14T05:59:44;10.98;75.82
20862;DHT22;10591;52.532;13.348;2023-03-14T06:02:15;10.88;76.05
20862;DHT22;10591;52.532;13.348;2023-03-14T06:04:46;11.14;75.49
20862;DHT22;10591;52.532;13.348;2023-03-14T06:07:18;11.14;75.08
20862;DHT22;10591;52.532;13.348;2023-03-14T06:09:51;11.16;74.59
20862;DHT22;10591;52.532;13.348;2023-03-14T06:15:07;11.13;74.54
20862;DHT22;10591;52.532;13.348;2023-03-14T06:17:38;11.04;74.39
20862;DHT22;10591;52.532;13.348;2023-03-14T06:20:10;11.20;73.93
20862;DHT22;10591;52.532;13.348;2023-03-14T06:22:41;11.28;73.62
20862;DHT22;10591;52.532;13.348;2023-03-14T06:25:11;11.14;73.63
20862;DHT22;10591;52.532;13.348;2023-03-14T06:27:44;11.20;73.46
20862;DHT22;10591;52.532;13.348;2023-03-14T06:30:16;11.17;73.76
20862;DHT22;10591;52.532;13.348;2023-03-14T06:32:48;11.15;73.52
20862;DHT22;10591;52.532;13.348;2023-03-14T06:35:21;11.45;72.74
20862;DHT22;10591;52.532;13.348;2023-03-14T06:37:51;11.46;72.30
20862;DHT22;10591;52.532;13.348;2023-03-14T06:40:21;11.46;72.49
20862;DHT22;10591;52.532;13.348;2023-03-14T06:42:52;11.51;72.13
20862;DHT22;10591;52.532;13.348;2023-03-14T06:45:23;11.60;71.85
20862;DHT22;10591;52.532;13.348;2023-03-14T06:47:55;11.56;71.76
20862;DHT22;10591;52.532;13.348;2023-03-14T06:50:25;11.76;71.27
20862;DHT22;10591;52.532;13.348;2023-03-14T06:52:56;11.74;71.11
20862;DHT22;10591;52.532;13.348;2023-03-14T06:55:27;11.86;70.60
20862;DHT22;10591;52.532;13.348;2023-03-14T06:57:58;11.85;70.78
20862;DHT22;10591;52.532;13.348;2023-03-14T07:00:28;11.88;70.14
20862;DHT22;10591;52.532;13.348;2023-03-14T07:02:59;12.06;69.99
20862;DHT22;10591;52.532;13.348;2023-03-14T07:05:30;12.17;69.50
20862;DHT22;10591;52.532;13.348;2023-03-14T07:08:00;12.24;69.24
20862;DHT22;10591;52.532;13.348;2023-03-14T07:10:31;12.20;69.28
20862;DHT22;10591;52.532;13.348;2023-03-14T07:13:03;12.14;69.49
20862;DHT22;10591;52.532;13.348;2023-03-14T07:15:34;12.19;69.45
20862;DHT22;10591;52.532;13.348;2023-03-14T07:18:06;12.00;69.76
20862;DHT22;10591;52.532;13.348;2023-03-14T07:20:37;11.88;70.27
20862;DHT22;10591;52.532;13.348;2023-03-14T07:23:08;11.82;70.40
20862;DHT22;10591;52.532;13.348;2023-03-14T07:25:39;11.64;71.19
20862;DHT22;10591;52.532;13.348;2023-03-14T07:28:10;11.75;70.89
20862;DHT22;10591;52.532;13.348;2023-03-14T07:30:42;11.78;71.01
20862;DHT22;10591;52.532;13.348;2023-03-14T07:33:13;11.78;71.14
20862;DHT22;10591;52.532;13.348;2023-03-14T07:35:43;11.86;70.86
20862;DHT22;10591;52.532;13.348;2023-03-14T07:38:15;11.81;71.25
20862;DHT22;10591;52.532;13.348;2023-03-14T07:40:46;11.94;70.58
20862;DHT22;10591;52.532;13.348;2023-03-14T07:43:18;11.80;70.55
20862;DHT22;10591;52.532;13.348;2023-03-14T07:45:51;11.92;70.71
20862;DHT22;10591;52.532;13.348;2023-03-14T07:48:24;11.75;71.11
20862;DHT22;10591;52.532;13.348;2023-03-14T07:50:58;11.83;71.15
20862;DHT22;10591;52.532;13.348;2023-03-14T07:53:29;11.81;70.88
20862;DHT22;10591;52.532;13.348;2023-03-14T07:56:01;12.08;70.26
20862;DHT22;10591;52.532;13.348;2023-03-14T07:58:33;12.16;69.98
20862;DHT22;10591;52.532;13.348;2023-03-14T08:01:08;12.40;69.21
20862;DHT22;10591;52.532;13.348;2023-03-14T08:03:41;12.46;68.90
20862;DHT22;10591;52.532;13.348;2023-03-14T08:06:12;12.47;68.92
20862;DHT22;10591;52.532;13.348;2023-03-14T08:08:43;12.56;68.72
20862;DHT22;10591;52.532;13.348;2023-03-14T08:11:16;12.66;67.78
20862;DHT22;10591;52.532;13.348;2023-03-14T08:13:48;12.86;67.73
20862;DHT22;10591;52.532;13.348;2023-03-14T08:16:22;13.06;67.33
20862;DHT22;10591;52.532;13.348;2023-03-14T08:18:53;13.29;66.60
20862;DHT22;10591;52.532;13.348;2023-03-14T08:21:25;13.50;65.38
20862;DHT22;10591;52.532;13.348;2023-03-14T08:24:00;13.53;65.36
20862;DHT22;10591;52.532;13.348;2023-03-14T08:26:31;13.42;65.25
20862;DHT22;10591;52.532;13.348;2023-03-14T08:29:04;13.29;66.13
20862;DHT22;10591;52.532;13.348;2023-03-14T08:31:36;13.32;66.08
20862;DHT22;10591;52.532;13.348;2023-03-14T08:34:07;13.28;66.23
20862;DHT22;10591;52.532;13.348;2023-03-14T08:36:41;13.42;65.87
20862;DHT22;10591;52.532;13.348;2023-03-14T08:39:10;13.14;66.45
20862;DHT22;10591;52.532;13.348;2023-03-14T08:41:42;13.01;66.74
20862;DHT22;10591;52.532;13.348;2023-03-14T08:44:14;12.88;67.27
20862;DHT22;10591;52.532;13.348;2023-03-14T08:46:46;13.04;67.57
20862;DHT22;10591;52.532;13.348;2023-03-14T08:49:17;12.94;67.31
20862;DHT22;10591;52.532;13.348;2023-03-14T08:51:48;12.85;67.48
20862;DHT22;10591;52.532;13.348;2023-03-14T08:54:19;12.87;67.87
20862;DHT22;10591;52.532;13.348;2023-03-14T08:56:50;12.86;67.11
20862;DHT22;10591;52.532;13.348;2023-03-14T08:59:21;12.80;67.31
20862;DHT22;10591;52.532;13.348;2023-03-14T09:01:52;12.80;67.39
20862;DHT22;10591;52.532;13.348;2023-03-14T09:04:24;12.76;67.31
20862;DHT22;10591;52.532;13.348;2023-03-14T09:06:54;12.89;66.72
20862;DHT22;10591;52.532;13.348;2023-03-14T09:09:27;13.18;66.07
20862;DHT22;10591;52.532;13.348;2023-03-14T09:11:57;13.41;65.11
20862;DHT22;10591;52.532;13.348;2023-03-14T09:14:30;13.62;63.33
20862;DHT22;10591;52.532;13.348;2023-03-14T09:17:06;13.66;63.88
20862;DHT22;10591;52.532;13.348;2023-03-14T09:19:37;13.37;64.59
20862;DHT22;10591;52.532;13.348;2023-03-14T09:22:07;13.63;63.53
20862;DHT22;10591;52.532;13.348;2023-03-14T09:24:42;13.74;63.04
20862;DHT22;10591;52.532;13.348;2023-03-14T09:27:13;13.81;62.71
20862;DHT22;10591;52.532;13.348;2023-03-14T09:29:44;13.97;62.53
20862;DHT22;10591;52.532;13.348;2023-03-14T09:32:15;13.95;62.35
20862;DHT22;10591;52.532;13.348;2023-03-14T09:34:45;14.05;62.31
20862;DHT22;10591;52.532;13.348;2023-03-14T09:37:16;14.27;61.20
20862;DHT22;10591;52.532;13.348;2023-03-14T09:39:47;14.38;60.90
20862;DHT22;10591;52.532;13.348;2023-03-14T09:42:20;14.70;60.13
20862;DHT22;10591;52.532;13.348;2023-03-14T09:47:28;15.00;59.45
20862;DHT22;10591;52.532;13.348;2023-03-14T09:50:00;14.88;58.96
20862;DHT22;10591;52.532;13.348;2023-03-14T09:52:37;14.47;59.83
20862;DHT22;10591;52.532;13.348;2023-03-14T09:55:13;14.52;59.92
20862;DHT22;10591;52.532;13.348;2023-03-14T09:57:46;14.18;60.34
20862;DHT22;10591;52.532;13.348;2023-03-14T10:00:20;14.07;60.73
20862;DHT22;10591;52.532;13.348;2023-03-14T10:02:55;14.04;60.84
20862;DHT22;10591;52.532;13.348;2023-03-14T10:05:26;14.00;61.03
20862;DHT22;10591;52.532;13.348;2023-03-14T10:08:00;14.08;61.08
20862;DHT22;10591;52.532;13.348;2023-03-14T10:10:31;14.16;61.12
20862;DHT22;10591;52.532;13.348;2023-03-14T10:13:17;14.14;61.20
20862;DHT22;10591;52.532;13.348;2023-03-14T10:15:55;14.10;61.11
20862;DHT22;10591;52.532;13.348;2023-03-14T10:18:30;14.04;61.16
20862;DHT22;10591;52.532;13.348;2023-03-14T10:21:25;14.31;60.21
20862;DHT22;10591;52.532;13.348;2023-03-14T10:23:54;14.22;60.52
20862;DHT22;10591;52.532;13.348;2023-03-14T10:26:28;14.38;59.64
20862;DHT22;10591;52.532;13.348;2023-03-14T10:29:14;14.36;59.82
20862;DHT22;10591;52.532;13.348;2023-03-14T10:31:49;14.40;59.56
20862;DHT22;10591;52.532;13.348;2023-03-14T10:34:30;14.26;60.00
20862;DHT22;10591;52.532;13.348;2023-03-14T10:36:58;14.13;59.92
20862;DHT22;10591;52.532;13.348;2023-03-14T10:39:35;13.89;60.20
20862;DHT22;10591;52.532;13.348;2023-03-14T10:42:22;13.88;60.50
20862;DHT22;10591;52.532;13.348;2023-03-14T10:44:59;13.94;60.22
20862;DHT22;10591;52.532;13.348;2023-03-14T10:47:30;13.79;60.54
20862;DHT22;10591;52.532;13.348;2023-03-14T10:50:27;13.88;60.41
20862;DHT22;10591;52.532;13.348;2023-03-14T10:53:02;13.70;61.33
20862;DHT22;10591;52.532;13.348;2023-03-14T10:55:44;13.86;60.66
20862;DHT22;10591;52.532;13.348;2023-03-14T10:58:24;13.88;60.49
20862;DHT22;10591;52.532;13.348;2023-03-14T11:01:04;13.98;60.01
20862;DHT22;10591;52.532;13.348;2023-03-14T11:03:36;13.98;60.28
20862;DHT22;10591;52.532;13.348;2023-03-14T11:06:18;14.16;59.66
20862;DHT22;10591;52.532;13.348;2023-03-14T11:08:59;14.06;59.76
20862;DHT22;10591;52.532;13.348;2023-03-14T11:11:31;13.80;60.11
20862;DHT22;10591;52.532;13.348;2023-03-14T11:19:42;14.02;60.11
20862;DHT22;10591;52.532;13.348;2023-03-14T11:22:40;13.88;60.38
20862;DHT22;10591;52.532;13.348;2023-03-14T11:24:53;14.08;59.62
20862;DHT22;10591;52.532;13.348;2023-03-14T11:27:41;14.09;59.77
20862;DHT22;10591;52.532;13.348;2023-03-14T11:33:04;13.94;60.47
20862;DHT22;10591;52.532;13.348;2023-03-14T11:38:27;14.19;60.34
20862;DHT22;10591;52.532;13.348;2023-03-14T11:40:58;14.30;60.44
20862;DHT22;10591;52.532;13.348;2023-03-14T11:43:35;14.24;60.79
20862;DHT22;10591;52.532;13.348;2023-03-14T11:46:11;14.15;61.06
20862;DHT22;10591;52.532;13.348;2023-03-14T11:48:54;14.11;61.49
20862;DHT22;10591;52.532;13.348;2023-03-14T11:51:31;14.14;61.73
20862;DHT22;10591;52.532;13.348;2023-03-14T11:57:05;14.50;61.29
20862;DHT22;10591;52.532;13.348;2023-03-14T12:02:21;14.73;60.72
20862;DHT22;10591;52.532;13.348;2023-03-14T12:10:48;14.94;60.61
20862;DHT22;10591;52.532;13.348;2023-03-14T12:13:18;14.92;60.49
20862;DHT22;10591;52.532;13.348;2023-03-14T12:15:54;14.84;60.68
20862;DHT22;10591;52.532;13.348;2023-03-14T12:18:37;14.84;60.68
20862;DHT22;10591;52.532;13.348;2023-03-14T12:21:08;14.95;60.78
20862;DHT22;10591;52.532;13.348;2023-03-14T12:23:51;14.90;60.75
20862;DHT22;10591;52.532;13.348;2023-03-14T12:26:27;14.74;61.15
20862;DHT22;10591;52.532;13.348;2023-03-14T12:31:43;15.04;60.24
20862;DHT22;10591;52.532;13.348;2023-03-14T12:36:55;15.13;60.43
20862;DHT22;10591;52.532;13.348;2023-03-14T12:42:43;14.91;60.14
20862;DHT22;10591;52.532;13.348;2023-03-14T12:45:23;14.95;60.64
20862;DHT22;10591;52.532;13.348;2023-03-14T12:48:18;14.87;60.80
20862;DHT22;10591;52.532;13.348;2023-03-14T12:50:56;15.09;60.83
20862;DHT22;10591;52.532;13.348;2023-03-14T12:56:21;14.86;61.38
20862;DHT22;10591;52.532;13.348;2023-03-14T13:04:45;14.23;66.82
20862;DHT22;10591;52.532;13.348;2023-03-14T13:12:55;13.92;69.28
20862;DHT22;10591;52.532;13.348;2023-03-14T13:15:41;13.82;67.88
20862;DHT22;10591;52.532;13.348;2023-03-14T13:20:54;13.34;70.66
20862;DHT22;10591;52.532;13.348;2023-03-14T13:23:29;13.00;71.96
20862;DHT22;10591;52.532;13.348;2023-03-14T13:26:01;13.14;72.63
20862;DHT22;10591;52.532;13.348;2023-03-14T13:28:33;13.00;73.71
20862;DHT22;10591;52.532;13.348;2023-03-14T13:31:12;13.47;71.77
20862;DHT22;10591;52.532;13.348;2023-03-14T13:33:43;13.64;72.30
20862;DHT22;10591;52.532;13.348;2023-03-14T13:36:21;13.85;72.37
20862;DHT22;10591;52.532;13.348;2023-03-14T13:39:00;14.09;70.61
20862;DHT22;10591;52.532;13.348;2023-03-14T13:41:33;14.10;69.88
20862;DHT22;10591;52.532;13.348;2023-03-14T13:44:06;14.58;69.91
20862;DHT22;10591;52.532;13.348;2023-03-14T13:46:38;14.66;68.21
20862;DHT22;10591;52.532;13.348;2023-03-14T13:49:26;14.94;67.62
20862;DHT22;10591;52.532;13.348;2023-03-14T13:51:55;14.96;67.05
20862;DHT22;10591;52.532;13.348;2023-03-14T13:54:26;15.17;66.48
20862;DHT22;10591;52.532;13.348;2023-03-14T13:57:06;15.71;64.65
20862;DHT22;10591;52.532;13.348;2023-03-14T13:59:35;15.54;64.25
20862;DHT22;10591;52.532;13.348;2023-03-14T14:02:14;15.46;64.81
20862;DHT22;10591;52.532;13.348;2023-03-14T14:04:47;15.31;63.98
20862;DHT22;10591;52.532;13.348;2023-03-14T14:07:21;15.00;64.41
20862;DHT22;10591;52.532;13.348;2023-03-14T14:09:53;14.86;65.01
20862;DHT22;10591;52.532;13.348;2023-03-14T14:12:29;15.13;64.36
20862;DHT22;10591;52.532;13.348;2023-03-14T14:15:05;15.09;63.58
20862;DHT22;10591;52.532;13.348;2023-03-14T14:17:42;15.06;62.97
20862;DHT22;10591;52.532;13.348;2023-03-14T14:20:40;14.78;63.18
20862;DHT22;10591;52.532;13.348;2023-03-14T14:23:19;14.70;63.77
20862;DHT22;10591;52.532;13.348;2023-03-14T14:25:52;14.38;65.02
20862;DHT22;10591;52.532;13.348;2023-03-14T14:34:00;14.30;65.88
20862;DHT22;10591;52.532;13.348;2023-03-14T14:36:40;14.34;65.98
20862;DHT22;10591;52.532;13.348;2023-03-14T14:41:51;14.32;66.08
20862;DHT22;10591;52.532;13.348;2023-03-14T14:44:32;14.44;65.91
20862;DHT22;10591;52.532;13.348;2023-03-14T14:47:04;14.59;64.94
20862;DHT22;10591;52.532;13.348;2023-03-14T14:49:36;14.43;65.05
20862;DHT22;10591;52.532;13.348;2023-03-14T14:52:16;14.42;64.43
20862;DHT22;10591;52.532;13.348;2023-03-14T14:54:51;14.20;64.76
20862;DHT22;10591;52.532;13.348;2023-03-14T14:57:25;14.14;64.78
20862;DHT22;10591;52.532;13.348;2023-03-14T15:00:08;14.09;65.36
20862;DHT22;10591;52.532;13.348;2023-03-14T15:02:40;13.98;65.32
20862;DHT22;10591;52.532;13.348;2023-03-14T15:05:21;13.84;65.71
20862;DHT22;10591;52.532;13.348;2023-03-14T15:07:52;13.69;66.39
20862;DHT22;10591;52.532;13.348;2023-03-14T15:10:25;13.72;66.26
20862;DHT22;10591;52.532;13.348;2023-03-14T15:12:57;13.67;66.69
20862;DHT22;10591;52.532;13.348;2023-03-14T15:15:28;10.62;74.02
20862;DHT22;10591;52.532;13.348;2023-03-14T15:17:59;8.68;82.61
20862;DHT22;10591;52.532;13.348;2023-03-14T15:20:30;6.86;90.68
20862;DHT22;10591;52.532;13.348;2023-03-14T15:23:04;6.24;91.64
20862;DHT22;10591;52.532;13.348;2023-03-14T15:25:34;5.96;91.76
20862;DHT22;10591;52.532;13.348;2023-03-14T15:28:21;5.46;91.52
20862;DHT22;10591;52.532;13.348;2023-03-14T15:30:54;5.34;91.64
20862;DHT22;10591;52.532;13.348;2023-03-14T15:33:28;5.12;91.54
20862;DHT22;10591;52.532;13.348;2023-03-14T15:35:59;4.96;91.46
20862;DHT22;10591;52.532;13.348;2023-03-14T15:38:30;4.93;91.53
20862;DHT22;10591;52.532;13.348;2023-03-14T15:41:02;4.84;91.51
20862;DHT22;10591;52.532;13.348;2023-03-14T15:43:32;4.58;91.44
20862;DHT22;10591;52.532;13.348;2023-03-14T15:46:03;4.42;91.41
20862;DHT22;10591;52.532;13.348;2023-03-14T15:48:37;4.31;91.45
20862;DHT22;10591;52.532;13.348;2023-03-14T15:51:08;4.24;91.45
20862;DHT22;10591;52.532;13.348;2023-03-14T15:53:39;4.10;91.39
20862;DHT22;10591;52.532;13.348;2023-03-14T15:56:17;4.07;91.38
20862;DHT22;10591;52.532;13.348;2023-03-14T15:58:49;3.65;91.15
20862;DHT22;10591;52.532;13.348;2023-03-14T16:01:20;3.30;90.99
20862;DHT22;10591;52.532;13.348;2023-03-14T16:03:51;3.12;90.92
20862;DHT22;10591;52.532;13.348;2023-03-14T16:06:23;2.90;91.05
20862;DHT22;10591;52.532;13.348;2023-03-14T16:08:56;2.90;91.24
20862;DHT22;10591;52.532;13.348;2023-03-14T16:11:28;2.53;91.19
20862;DHT22;10591;52.532;13.348;2023-03-14T16:13:59;2.30;91.16
20862;DHT22;10591;52.532;13.348;2023-03-14T16:16:32;2.27;91.24
20862;DHT22;10591;52.532;13.348;2023-03-14T16:19:05;2.15;91.29
20862;DHT22;10591;52.532;13.348;2023-03-14T16:21:35;1.88;91.30
20862;DHT22;10591;52.532;13.348;2023-03-14T16:24:08;1.77;91.36
20862;DHT22;10591;52.532;13.348;2023-03-14T16:26:40;1.66;91.40
20862;DHT22;10591;52.532;13.348;2023-03-14T16:29:14;1.69;91.46
20862;DHT22;10591;52.532;13.348;2023-03-14T16:31:45;1.40;91.50
20862;DHT22;10591;52.532;13.348;2023-03-14T16:34:17;1.26;91.54
20862;DHT22;10591;52.532;13.348;2023-03-14T16:36:48;1.10;91.54
20862;DHT22;10591;52.532;13.348;2023-03-14T16:39:21;1.16;91.62
20862;DHT22;10591;52.532;13.348;2023-03-14T16:41:52;1.17;91.60
20862;DHT22;10591;52.532;13.348;2023-03-14T16:44:27;1.24;91.66
20862;DHT22;10591;52.532;13.348;2023-03-14T16:47:01;1.24;91.66
20862;DHT22;10591;52.532;13.348;2023-03-14T16:49:32;1.28;91.63
20862;DHT22;10591;52.532;13.348;2023-03-14T16:52:05;1.33;91.63
20862;DHT22;10591;52.532;13.348;2023-03-14T16:54:38;1.48;91.61
20862;DHT22;10591;52.532;13.348;2023-03-14T16:57:08;1.52;91.59
20862;DHT22;10591;52.532;13.348;2023-03-14T16:59:39;1.62;91.59
20862;DHT22;10591;52.532;13.348;2023-03-14T17:02:10;1.71;91.58
20862;DHT22;10591;52.532;13.348;2023-03-14T17:04:41;1.58;91.53
20862;DHT22;10591;52.532;13.348;2023-03-14T17:07:12;1.58;91.51